createdAt,value
2018-06-27T00:00:43.229Z,0.00
2018-06-27T00:01:43.277Z,0.00
2018-06-27T00:02:43.346Z,0.00
2018-06-27T00:03:43.405Z,0.00
2018-06-27T00:04:43.474Z,0.00
2018-06-27T00:05:43.541Z,0.00
2018-06-27T00:06:43.629Z,0.00
2018-06-27T00:07:43.661Z,0.00
2018-06-27T00:08:43.725Z,0.00
2018-06-27T00:09:43.789Z,0.00
2018-06-27T00:10:43.858Z,0.00
2018-06-27T00:11:43.930Z,0.00
2018-06-27T00:12:43.978Z,0.00
2018-06-27T00:13:44.046Z,0.00
2018-06-27T00:14:44.110Z,0.00
2018-06-27T00:15:44.418Z,0.00
2018-06-27T00:16:44.234Z,0.00
2018-06-27T00:17:44.298Z,0.00
2018-06-27T00:18:44.362Z,0.00
2018-06-27T00:19:44.430Z,0.00
2018-06-27T00:20:44.498Z,0.00
2018-06-27T00:21:44.574Z,0.00
2018-06-27T00:22:44.618Z,0.00
2018-06-27T00:23:44.706Z,0.00
2018-06-27T00:24:44.745Z,0.00
2018-06-27T00:25:44.850Z,0.00
2018-06-27T00:26:44.882Z,0.00
2018-06-27T00:27:44.939Z,0.00
2018-06-27T00:28:45.002Z,0.00
2018-06-27T00:29:45.073Z,0.00
2018-06-27T00:30:45.163Z,0.00
2018-06-27T00:31:45.194Z,0.00
2018-06-27T00:32:45.258Z,0.00
2018-06-27T00:33:45.341Z,0.00
2018-06-27T00:34:45.387Z,0.00
2018-06-27T00:35:45.458Z,0.00
2018-06-27T00:36:45.523Z,0.00
2018-06-27T00:37:45.591Z,0.00
2018-06-27T00:38:45.643Z,0.00
2018-06-27T00:39:45.707Z,0.00
2018-06-27T00:40:45.784Z,0.00
2018-06-27T00:41:45.841Z,0.00
2018-06-27T00:42:45.899Z,0.00
2018-06-27T00:43:45.963Z,0.00
2018-06-27T00:44:46.030Z,0.00
2018-06-27T00:45:46.293Z,0.00
2018-06-27T00:46:46.163Z,0.00
2018-06-27T00:47:46.219Z,0.00
2018-06-27T00:48:46.279Z,0.00
2018-06-27T00:49:46.343Z,0.00
2018-06-27T00:50:46.415Z,0.00
2018-06-27T00:51:46.479Z,0.00
2018-06-27T00:52:46.538Z,0.00
2018-06-27T00:53:46.603Z,0.00
2018-06-27T00:54:46.663Z,0.00
2018-06-27T00:55:46.735Z,0.00
2018-06-27T00:56:46.799Z,0.00
2018-06-27T00:57:46.915Z,0.00
2018-06-27T00:58:46.925Z,0.00
2018-06-27T00:59:46.983Z,0.00
2018-06-27T01:00:47.051Z,0.00
2018-06-27T01:01:47.115Z,0.00
2018-06-27T01:02:47.175Z,0.00
2018-06-27T01:03:47.240Z,0.00
2018-06-27T01:04:47.299Z,0.00
2018-06-27T01:05:47.515Z,0.00
2018-06-27T01:06:47.427Z,0.00
2018-06-27T01:07:47.491Z,0.00
2018-06-27T01:08:47.564Z,0.00
2018-06-27T01:09:47.619Z,0.00
2018-06-27T01:10:47.692Z,0.00
2018-06-27T01:11:47.756Z,0.00
2018-06-27T01:12:47.812Z,0.00
2018-06-27T01:13:47.876Z,0.00
2018-06-27T01:14:47.940Z,0.00
2018-06-27T01:15:48.012Z,0.00
2018-06-27T01:16:48.071Z,0.00
2018-06-27T01:17:48.140Z,0.00
2018-06-27T01:18:48.200Z,0.00
2018-06-27T01:19:48.260Z,0.00
2018-06-27T01:20:48.320Z,0.00
2018-06-27T01:21:48.539Z,0.00
2018-06-27T01:22:48.449Z,0.00
2018-06-27T01:23:48.512Z,0.00
2018-06-27T01:24:48.576Z,0.00
2018-06-27T01:25:48.640Z,0.00
2018-06-27T01:26:48.716Z,0.00
2018-06-27T01:27:48.776Z,0.00
2018-06-27T01:28:48.835Z,0.00
2018-06-27T01:29:48.903Z,0.00
2018-06-27T01:30:48.960Z,0.00
2018-06-27T01:31:49.036Z,0.00
2018-06-27T01:32:49.092Z,0.00
2018-06-27T01:33:49.189Z,0.00
2018-06-27T01:34:49.213Z,0.00
2018-06-27T01:35:49.292Z,0.00
2018-06-27T01:36:49.381Z,0.00
2018-06-27T01:37:49.413Z,0.00
2018-06-27T01:38:49.468Z,0.00
2018-06-27T01:39:49.535Z,0.00
2018-06-27T01:40:49.597Z,0.00
2018-06-27T01:41:49.665Z,0.00
2018-06-27T01:42:49.732Z,0.00
2018-06-27T01:43:49.788Z,0.00
2018-06-27T01:44:49.865Z,0.00
2018-06-27T01:45:49.913Z,0.00
2018-06-27T01:46:49.981Z,0.00
2018-06-27T01:47:50.085Z,0.00
2018-06-27T01:48:50.105Z,0.00
2018-06-27T01:49:50.169Z,0.00
2018-06-27T01:50:50.229Z,0.00
2018-06-27T01:51:50.293Z,0.00
2018-06-27T01:52:50.529Z,0.00
2018-06-27T01:53:50.420Z,0.00
2018-06-27T01:54:50.485Z,0.00
2018-06-27T01:55:50.553Z,0.00
2018-06-27T01:56:50.615Z,0.00
2018-06-27T01:57:50.686Z,0.00
2018-06-27T01:58:50.777Z,0.00
2018-06-27T01:59:50.802Z,0.00
2018-06-27T02:00:50.869Z,0.00
2018-06-27T02:01:50.942Z,0.00
2018-06-27T02:02:51.040Z,0.00
2018-06-27T02:03:51.074Z,0.00
2018-06-27T02:04:51.121Z,0.00
2018-06-27T02:05:51.186Z,0.00
2018-06-27T02:06:51.250Z,0.00
2018-06-27T02:07:51.313Z,0.00
2018-06-27T02:08:51.482Z,0.00
2018-06-27T02:09:51.442Z,0.00
2018-06-27T02:10:51.509Z,0.00
2018-06-27T02:11:51.611Z,0.00
2018-06-27T02:12:51.626Z,0.00
2018-06-27T02:13:51.722Z,0.00
2018-06-27T02:14:51.770Z,0.00
2018-06-27T02:15:51.826Z,0.00
2018-06-27T02:16:51.886Z,0.00
2018-06-27T02:17:51.962Z,0.00
2018-06-27T02:18:52.041Z,0.00
2018-06-27T02:19:52.086Z,0.00
2018-06-27T02:20:52.139Z,0.00
2018-06-27T02:21:52.204Z,0.00
2018-06-27T02:22:52.270Z,0.00
2018-06-27T02:23:52.345Z,0.00
2018-06-27T02:24:52.398Z,0.00
2018-06-27T02:25:52.455Z,0.00
2018-06-27T02:26:52.547Z,0.00
2018-06-27T02:27:52.591Z,0.00
2018-06-27T02:28:52.655Z,0.00
2018-06-27T02:29:52.727Z,0.00
2018-06-27T02:30:52.779Z,0.00
2018-06-27T02:31:52.854Z,0.00
2018-06-27T02:32:52.903Z,0.00
2018-06-27T02:33:52.996Z,0.00
2018-06-27T02:34:53.039Z,0.00
2018-06-27T02:35:53.099Z,0.00
2018-06-27T02:36:53.165Z,0.00
2018-06-27T02:37:53.223Z,0.00
2018-06-27T02:38:53.683Z,0.00
2018-06-27T02:39:53.345Z,0.00
2018-06-27T02:40:53.412Z,0.00
2018-06-27T02:41:53.475Z,0.00
2018-06-27T02:42:53.539Z,0.00
2018-06-27T02:43:53.616Z,0.00
2018-06-27T02:44:53.848Z,0.00
2018-06-27T02:45:53.742Z,0.00
2018-06-27T02:46:53.792Z,0.00
2018-06-27T02:47:54.263Z,0.00
2018-06-27T02:48:53.920Z,0.00
2018-06-27T02:49:53.996Z,0.00
2018-06-27T02:50:54.054Z,0.00
2018-06-27T02:51:54.120Z,0.00
2018-06-27T02:52:54.173Z,0.00
2018-06-27T02:53:54.236Z,0.00
2018-06-27T02:54:54.300Z,0.00
2018-06-27T02:55:54.477Z,0.00
2018-06-27T02:56:54.425Z,0.00
2018-06-27T02:57:54.516Z,0.00
2018-06-27T02:58:54.556Z,0.00
2018-06-27T02:59:54.621Z,0.00
2018-06-27T03:00:54.692Z,0.00
2018-06-27T03:01:54.757Z,0.00
2018-06-27T03:02:54.808Z,0.00
2018-06-27T03:03:54.876Z,0.00
2018-06-27T03:04:54.937Z,0.00
2018-06-27T03:05:55.009Z,0.00
2018-06-27T03:06:55.066Z,0.00
2018-06-27T03:07:55.136Z,0.00
2018-06-27T03:08:55.185Z,0.00
2018-06-27T03:09:55.249Z,0.00
2018-06-27T03:10:55.769Z,0.00
2018-06-27T03:11:55.377Z,0.00
2018-06-27T03:12:55.441Z,5.63
2018-06-27T03:13:55.558Z,5.63
2018-06-27T03:14:55.573Z,5.63
2018-06-27T03:15:55.633Z,5.63
2018-06-27T03:16:55.709Z,5.63
2018-06-27T03:17:55.757Z,5.63
2018-06-27T03:18:55.825Z,5.63
2018-06-27T03:19:55.889Z,5.63
2018-06-27T03:20:55.954Z,5.63
2018-06-27T03:21:56.034Z,5.63
2018-06-27T03:22:56.086Z,5.63
2018-06-27T03:23:56.137Z,11.25
2018-06-27T03:24:56.202Z,11.25
2018-06-27T03:25:56.277Z,11.25
2018-06-27T03:26:56.346Z,11.25
2018-06-27T03:27:56.393Z,11.25
2018-06-27T03:28:56.449Z,11.25
2018-06-27T03:29:56.518Z,11.25
2018-06-27T03:30:56.582Z,16.88
2018-06-27T03:31:56.661Z,16.88
2018-06-27T03:32:56.714Z,16.88
2018-06-27T03:33:56.770Z,16.88
2018-06-27T03:34:56.834Z,16.88
2018-06-27T03:35:56.898Z,16.88
2018-06-27T03:36:56.971Z,16.88
2018-06-27T03:37:57.030Z,22.50
2018-06-27T03:38:57.090Z,22.50
2018-06-27T03:39:57.154Z,22.50
2018-06-27T03:40:57.214Z,22.50
2018-06-27T03:41:57.318Z,22.50
2018-06-27T03:42:57.346Z,22.50
2018-06-27T03:43:57.406Z,28.13
2018-06-27T03:44:57.474Z,28.13
2018-06-27T03:45:57.530Z,28.13
2018-06-27T03:46:57.603Z,28.13
2018-06-27T03:47:57.667Z,28.13
2018-06-27T03:48:57.723Z,33.75
2018-06-27T03:49:57.787Z,33.75
2018-06-27T03:50:57.851Z,33.75
2018-06-27T03:51:57.919Z,33.75
2018-06-27T03:52:57.983Z,33.75
2018-06-27T03:53:58.042Z,33.75
2018-06-27T03:54:58.103Z,39.38
2018-06-27T03:55:58.167Z,39.38
2018-06-27T03:56:58.560Z,39.38
2018-06-27T03:57:58.307Z,39.38
2018-06-27T03:58:58.386Z,39.38
2018-06-27T03:59:58.419Z,45.00
2018-06-27T04:00:58.483Z,45.00
2018-06-27T04:01:58.547Z,45.00
2018-06-27T04:02:58.643Z,45.00
2018-06-27T04:03:58.675Z,45.00
2018-06-27T04:04:58.735Z,50.63
2018-06-27T04:05:58.800Z,50.63
2018-06-27T04:06:58.864Z,50.63
2018-06-27T04:07:58.944Z,50.63
2018-06-27T04:08:59.001Z,56.25
2018-06-27T04:09:59.055Z,56.25
2018-06-27T04:10:59.140Z,56.25
2018-06-27T04:11:59.183Z,56.25
2018-06-27T04:12:59.300Z,56.25
2018-06-27T04:13:59.340Z,56.25
2018-06-27T04:14:59.373Z,61.88
2018-06-27T04:15:59.445Z,61.88
2018-06-27T04:16:59.516Z,61.88
2018-06-27T04:17:59.564Z,61.88
2018-06-27T04:18:59.632Z,61.88
2018-06-27T04:19:59.704Z,67.50
2018-06-27T04:20:59.752Z,67.50
2018-06-27T04:21:59.816Z,67.50
2018-06-27T04:22:59.880Z,67.50
2018-06-27T04:23:59.962Z,67.50
2018-06-27T04:25:00.013Z,73.13
2018-06-27T04:26:00.073Z,73.13
2018-06-27T04:27:00.133Z,73.13
2018-06-27T04:28:00.233Z,73.13
2018-06-27T04:29:00.276Z,73.13
2018-06-27T04:30:00.385Z,78.75
2018-06-27T04:31:00.409Z,78.75
2018-06-27T04:32:00.473Z,78.75
2018-06-27T04:33:00.673Z,78.75
2018-06-27T04:34:00.661Z,78.75
2018-06-27T04:35:00.868Z,78.75
2018-06-27T04:36:00.770Z,84.38
2018-06-27T04:37:00.795Z,84.38
2018-06-27T04:38:00.857Z,84.38
2018-06-27T04:39:01.241Z,84.38
2018-06-27T04:40:01.003Z,84.38
2018-06-27T04:41:01.085Z,90.00
2018-06-27T04:42:01.109Z,90.00
2018-06-27T04:43:01.250Z,90.00
2018-06-27T04:44:01.228Z,90.00
2018-06-27T04:45:01.417Z,95.63
2018-06-27T04:46:01.369Z,95.63
2018-06-27T04:47:01.629Z,95.63
2018-06-27T04:48:01.474Z,101.25
2018-06-27T04:49:01.766Z,101.25
2018-06-27T04:50:01.654Z,101.25
2018-06-27T04:51:01.702Z,101.25
2018-06-27T04:52:01.966Z,101.25
2018-06-27T04:53:01.838Z,101.25
2018-06-27T04:54:01.894Z,106.88
2018-06-27T04:55:01.952Z,106.88
2018-06-27T04:56:02.082Z,106.88
2018-06-27T04:57:02.110Z,106.88
2018-06-27T04:58:02.102Z,112.50
2018-06-27T04:59:02.206Z,112.50
2018-06-27T05:00:02.585Z,112.50
2018-06-27T05:01:02.339Z,112.50
2018-06-27T05:02:02.390Z,112.50
2018-06-27T05:03:02.430Z,112.50
2018-06-27T05:04:02.510Z,112.50
2018-06-27T05:05:02.618Z,118.13
2018-06-27T05:06:02.810Z,118.13
2018-06-27T05:07:02.690Z,118.13
2018-06-27T05:08:02.766Z,118.13
2018-06-27T05:09:02.862Z,118.13
2018-06-27T05:10:02.954Z,123.75
2018-06-27T05:11:03.067Z,123.75
2018-06-27T05:12:03.189Z,123.75
2018-06-27T05:13:03.106Z,123.75
2018-06-27T05:14:03.456Z,123.75
2018-06-27T05:15:03.451Z,123.75
2018-06-27T05:16:03.327Z,123.75
2018-06-27T05:17:03.320Z,123.75
2018-06-27T05:18:03.398Z,123.75
2018-06-27T05:19:03.454Z,123.75
2018-06-27T05:20:03.510Z,129.38
2018-06-27T05:21:03.611Z,129.38
2018-06-27T05:22:03.657Z,129.38
2018-06-27T05:23:03.707Z,129.38
2018-06-27T05:24:03.771Z,129.38
2018-06-27T05:25:03.835Z,129.38
2018-06-27T05:26:03.908Z,135.00
2018-06-27T05:27:03.956Z,135.00
2018-06-27T05:28:04.023Z,135.00
2018-06-27T05:29:04.083Z,135.00
2018-06-27T05:30:04.167Z,140.63
2018-06-27T05:31:04.211Z,140.63
2018-06-27T05:32:04.280Z,140.63
2018-06-27T05:33:04.339Z,140.63
2018-06-27T05:34:04.403Z,140.63
2018-06-27T05:35:04.523Z,140.63
2018-06-27T05:36:04.539Z,140.63
2018-06-27T05:37:04.595Z,146.25
2018-06-27T05:38:04.661Z,146.25
2018-06-27T05:39:04.723Z,146.25
2018-06-27T05:40:04.796Z,146.25
2018-06-27T05:41:04.859Z,146.25
2018-06-27T05:42:04.911Z,146.25
2018-06-27T05:43:04.992Z,146.25
2018-06-27T05:44:05.051Z,151.88
2018-06-27T05:45:05.135Z,151.88
2018-06-27T05:46:05.168Z,151.88
2018-06-27T05:47:05.251Z,151.88
2018-06-27T05:48:05.300Z,157.50
2018-06-27T05:49:05.452Z,157.50
2018-06-27T05:50:05.456Z,157.50
2018-06-27T05:51:05.508Z,157.50
2018-06-27T05:52:05.560Z,157.50
2018-06-27T05:53:05.616Z,157.50
2018-06-27T05:54:05.692Z,157.50
2018-06-27T05:55:05.761Z,157.50
2018-06-27T05:56:05.824Z,163.13
2018-06-27T05:57:05.880Z,157.50
2018-06-27T05:58:06.017Z,157.50
2018-06-27T05:59:06.013Z,157.50
2018-06-27T06:00:06.181Z,157.50
2018-06-27T06:01:06.137Z,157.50
2018-06-27T06:02:06.201Z,157.50
2018-06-27T06:03:06.264Z,163.13
2018-06-27T06:04:06.332Z,163.13
2018-06-27T06:05:06.406Z,163.13
2018-06-27T06:06:06.465Z,163.13
2018-06-27T06:07:06.523Z,168.75
2018-06-27T06:08:06.588Z,163.13
2018-06-27T06:09:06.653Z,168.75
2018-06-27T06:10:06.721Z,168.75
2018-06-27T06:11:06.830Z,168.75
2018-06-27T06:12:06.846Z,168.75
2018-06-27T06:13:06.905Z,174.38
2018-06-27T06:14:07.357Z,871.88
2018-06-27T06:15:07.049Z,2227.50
2018-06-27T06:16:07.105Z,3105.00
2018-06-27T06:17:07.169Z,3121.88
2018-06-27T06:18:07.237Z,3150.00
2018-06-27T06:19:07.359Z,3195.00
2018-06-27T06:20:07.657Z,3155.63
2018-06-27T06:21:07.436Z,3093.75
2018-06-27T06:22:07.501Z,3138.75
2018-06-27T06:23:07.578Z,3065.63
2018-06-27T06:24:07.645Z,3048.75
2018-06-27T06:25:07.730Z,3189.38
2018-06-27T06:26:07.814Z,3183.75
2018-06-27T06:27:07.938Z,3166.88
2018-06-27T06:28:07.930Z,3110.63
2018-06-27T06:29:08.002Z,3195.00
2018-06-27T06:30:08.670Z,3301.88
2018-06-27T06:31:08.182Z,3290.63
2018-06-27T06:32:08.285Z,3285.00
2018-06-27T06:33:08.442Z,3335.63
2018-06-27T06:34:08.374Z,3391.88
2018-06-27T06:35:08.455Z,3425.63
2018-06-27T06:36:08.804Z,3442.50
2018-06-27T06:37:08.670Z,3408.75
2018-06-27T06:38:08.746Z,3324.38
2018-06-27T06:39:08.826Z,3234.38
2018-06-27T06:40:08.836Z,3228.75
2018-06-27T06:41:08.915Z,3217.50
2018-06-27T06:42:09.044Z,3183.75
2018-06-27T06:43:09.306Z,3150.00
2018-06-27T06:44:09.143Z,3037.50
2018-06-27T06:45:09.222Z,3015.00
2018-06-27T06:46:09.476Z,3121.88
2018-06-27T06:47:09.383Z,3127.50
2018-06-27T06:48:09.462Z,2975.63
2018-06-27T06:49:09.534Z,2823.75
2018-06-27T06:50:09.618Z,2998.13
2018-06-27T06:51:09.737Z,3088.13
2018-06-27T06:52:09.895Z,3082.50
2018-06-27T06:53:09.851Z,3183.75
2018-06-27T06:54:09.931Z,3150.00
2018-06-27T06:55:10.009Z,3183.75
2018-06-27T06:56:10.199Z,3195.00
2018-06-27T06:57:10.171Z,3166.88
2018-06-27T06:58:10.251Z,3234.38
2018-06-27T06:59:10.331Z,3240.00
2018-06-27T07:00:10.411Z,3245.63
2018-06-27T07:01:10.599Z,3099.38
2018-06-27T07:02:10.596Z,3138.75
2018-06-27T07:03:10.655Z,3268.13
2018-06-27T07:04:10.736Z,3200.63
2018-06-27T07:05:10.819Z,3161.25
2018-06-27T07:06:10.920Z,3228.75
2018-06-27T07:07:10.983Z,3268.13
2018-06-27T07:08:11.064Z,3093.75
2018-06-27T07:09:11.135Z,3121.88
2018-06-27T07:10:11.223Z,3189.38
2018-06-27T07:11:11.415Z,3178.13
2018-06-27T07:12:11.511Z,3195.00
2018-06-27T07:13:11.544Z,3262.50
2018-06-27T07:14:11.551Z,3183.75
2018-06-27T07:15:11.672Z,3245.63
2018-06-27T07:16:11.720Z,3346.88
2018-06-27T07:17:11.860Z,3465.00
2018-06-27T07:18:11.936Z,3780.00
2018-06-27T07:19:11.965Z,4145.63
2018-06-27T07:20:12.136Z,4831.88
2018-06-27T07:21:13.504Z,5079.38
2018-06-27T07:22:12.219Z,3560.63
2018-06-27T07:23:12.352Z,1614.38
2018-06-27T07:24:12.400Z,1057.50
2018-06-27T07:25:12.452Z,1012.50
2018-06-27T07:26:12.537Z,1018.13
2018-06-27T07:27:12.728Z,1023.75
2018-06-27T07:28:12.696Z,1006.88
2018-06-27T07:29:13.477Z,990.00
2018-06-27T07:30:12.865Z,984.38
2018-06-27T07:31:12.949Z,978.75
2018-06-27T07:32:13.046Z,978.75
2018-06-27T07:33:13.117Z,984.38
2018-06-27T07:34:13.189Z,984.38
2018-06-27T07:35:13.277Z,990.00
2018-06-27T07:36:13.361Z,990.00
2018-06-27T07:37:13.449Z,1001.25
2018-06-27T07:38:13.533Z,1001.25
2018-06-27T07:39:13.605Z,1012.50
2018-06-27T07:40:13.689Z,1018.13
2018-06-27T07:41:13.785Z,1018.13
2018-06-27T07:42:13.861Z,1018.13
2018-06-27T07:43:13.945Z,1023.75
2018-06-27T07:44:14.021Z,1046.25
2018-06-27T07:45:14.102Z,1046.25
2018-06-27T07:46:14.190Z,1051.88
2018-06-27T07:47:14.293Z,1057.50
2018-06-27T07:48:14.349Z,1068.75
2018-06-27T07:49:14.433Z,1080.00
2018-06-27T07:50:14.514Z,1102.50
2018-06-27T07:51:14.594Z,1096.88
2018-06-27T07:52:14.686Z,1113.75
2018-06-27T07:53:14.770Z,1125.00
2018-06-27T07:54:14.848Z,1136.25
2018-06-27T07:55:14.971Z,1136.25
2018-06-27T07:56:15.010Z,1153.13
2018-06-27T07:57:15.106Z,1164.38
2018-06-27T07:58:15.178Z,1170.00
2018-06-27T07:59:15.258Z,1170.00
2018-06-27T08:00:15.342Z,1175.63
2018-06-27T08:01:15.422Z,1186.88
2018-06-27T08:02:15.514Z,1186.88
2018-06-27T08:03:15.590Z,1198.13
2018-06-27T08:04:15.670Z,1203.75
2018-06-27T08:05:15.756Z,1215.00
2018-06-27T08:06:15.838Z,1220.63
2018-06-27T08:07:15.926Z,1215.00
2018-06-27T08:08:16.022Z,1215.00
2018-06-27T08:09:16.082Z,1220.63
2018-06-27T08:10:16.167Z,1220.63
2018-06-27T08:11:16.251Z,1215.00
2018-06-27T08:12:16.467Z,1226.25
2018-06-27T08:13:16.415Z,1215.00
2018-06-27T08:14:16.499Z,1215.00
2018-06-27T08:15:16.579Z,1220.63
2018-06-27T08:16:16.663Z,1220.63
2018-06-27T08:17:16.751Z,1226.25
2018-06-27T08:18:16.837Z,1209.38
2018-06-27T08:19:16.911Z,1203.75
2018-06-27T08:20:16.996Z,1203.75
2018-06-27T08:21:17.077Z,1198.13
2018-06-27T08:22:17.267Z,1203.75
2018-06-27T08:23:17.239Z,1192.50
2018-06-27T08:24:17.323Z,1192.50
2018-06-27T08:25:17.464Z,1175.63
2018-06-27T08:26:17.580Z,1164.38
2018-06-27T08:27:17.575Z,1164.38
2018-06-27T08:28:17.655Z,1153.13
2018-06-27T08:29:17.731Z,1147.50
2018-06-27T08:30:17.815Z,1147.50
2018-06-27T08:31:17.895Z,1147.50
2018-06-27T08:32:17.987Z,1141.88
2018-06-27T08:33:18.069Z,1130.63
2018-06-27T08:34:18.148Z,1113.75
2018-06-27T08:35:18.223Z,1102.50
2018-06-27T08:36:18.307Z,1113.75
2018-06-27T08:37:18.388Z,1096.88
2018-06-27T08:38:18.622Z,1091.25
2018-06-27T08:39:18.552Z,1096.88
2018-06-27T08:40:18.632Z,1108.13
2018-06-27T08:41:18.716Z,1113.75
2018-06-27T08:42:18.796Z,1119.38
2018-06-27T08:43:18.884Z,1119.38
2018-06-27T08:44:18.970Z,1130.63
2018-06-27T08:45:19.040Z,1136.25
2018-06-27T08:46:19.120Z,1141.88
2018-06-27T08:47:19.204Z,1153.13
2018-06-27T08:48:19.600Z,1192.50
2018-06-27T08:49:19.372Z,1226.25
2018-06-27T08:50:19.448Z,1260.00
2018-06-27T08:51:19.529Z,1276.88
2018-06-27T08:52:19.608Z,1248.75
2018-06-27T08:53:19.696Z,1220.63
2018-06-27T08:54:19.778Z,1220.63
2018-06-27T08:55:19.852Z,1209.38
2018-06-27T08:56:19.932Z,1203.75
2018-06-27T08:57:20.013Z,1170.00
2018-06-27T08:58:20.249Z,1141.88
2018-06-27T08:59:20.176Z,1136.25
2018-06-27T09:00:20.260Z,1125.00
2018-06-27T09:01:20.337Z,1113.75
2018-06-27T09:02:20.417Z,1091.25
2018-06-27T09:03:20.533Z,1074.38
2018-06-27T09:04:20.589Z,1046.25
2018-06-27T09:05:20.706Z,1029.38
2018-06-27T09:06:20.754Z,1018.13
2018-06-27T09:07:20.824Z,1012.50
2018-06-27T09:08:20.905Z,1006.88
2018-06-27T09:09:21.029Z,978.75
2018-06-27T09:10:21.061Z,967.50
2018-06-27T09:11:21.141Z,945.00
2018-06-27T09:12:21.222Z,933.75
2018-06-27T09:13:21.605Z,916.88
2018-06-27T09:14:21.382Z,888.75
2018-06-27T09:15:21.462Z,860.63
2018-06-27T09:16:21.541Z,843.75
2018-06-27T09:17:21.625Z,826.88
2018-06-27T09:18:21.709Z,815.63
2018-06-27T09:19:21.796Z,810.00
2018-06-27T09:20:21.862Z,815.63
2018-06-27T09:21:21.942Z,798.75
2018-06-27T09:22:22.022Z,798.75
2018-06-27T09:23:22.114Z,787.50
2018-06-27T09:24:22.182Z,781.88
2018-06-27T09:25:22.258Z,776.25
2018-06-27T09:26:22.386Z,787.50
2018-06-27T09:27:22.426Z,781.88
2018-06-27T09:28:22.503Z,770.63
2018-06-27T09:29:22.582Z,765.00
2018-06-27T09:30:22.654Z,753.75
2018-06-27T09:31:22.788Z,725.63
2018-06-27T09:32:22.818Z,708.75
2018-06-27T09:33:22.898Z,691.88
2018-06-27T09:34:22.978Z,675.00
2018-06-27T09:35:23.050Z,646.88
2018-06-27T09:36:23.131Z,613.13
2018-06-27T09:37:23.206Z,568.13
2018-06-27T09:38:23.287Z,517.50
2018-06-27T09:39:23.394Z,478.13
2018-06-27T09:40:23.447Z,461.25
2018-06-27T09:41:23.523Z,455.63
2018-06-27T09:42:23.607Z,455.63
2018-06-27T09:43:23.687Z,450.00
2018-06-27T09:44:23.779Z,444.38
2018-06-27T09:45:23.839Z,438.75
2018-06-27T09:46:23.946Z,433.13
2018-06-27T09:47:23.995Z,427.50
2018-06-27T09:48:24.071Z,427.50
2018-06-27T09:49:24.455Z,421.88
2018-06-27T09:50:24.292Z,416.25
2018-06-27T09:51:24.315Z,421.88
2018-06-27T09:52:24.383Z,410.63
2018-06-27T09:53:24.498Z,405.00
2018-06-27T09:54:24.603Z,405.00
2018-06-27T09:55:24.631Z,405.00
2018-06-27T09:56:24.699Z,399.38
2018-06-27T09:57:24.771Z,399.38
2018-06-27T09:58:24.912Z,393.75
2018-06-27T09:59:24.991Z,393.75
2018-06-27T10:00:25.012Z,393.75
2018-06-27T10:01:25.083Z,388.13
2018-06-27T10:02:25.159Z,382.50
2018-06-27T10:03:25.239Z,382.50
2018-06-27T10:04:25.319Z,382.50
2018-06-27T10:05:25.499Z,376.88
2018-06-27T10:06:25.467Z,371.25
2018-06-27T10:07:25.547Z,371.25
2018-06-27T10:08:25.628Z,365.63
2018-06-27T10:09:25.711Z,365.63
2018-06-27T10:10:25.784Z,365.63
2018-06-27T10:11:25.867Z,365.63
2018-06-27T10:12:25.931Z,365.63
2018-06-27T10:13:26.008Z,360.00
2018-06-27T10:14:26.092Z,354.38
2018-06-27T10:15:26.180Z,354.38
2018-06-27T10:16:26.239Z,354.38
2018-06-27T10:17:26.316Z,354.38
2018-06-27T10:18:26.392Z,354.38
2018-06-27T10:19:26.468Z,348.75
2018-06-27T10:20:26.552Z,348.75
2018-06-27T10:21:26.628Z,348.75
2018-06-27T10:22:26.771Z,343.13
2018-06-27T10:23:26.772Z,331.88
2018-06-27T10:24:26.848Z,343.13
2018-06-27T10:25:26.934Z,348.75
2018-06-27T10:26:27.008Z,348.75
2018-06-27T10:27:27.076Z,348.75
2018-06-27T10:28:27.195Z,348.75
2018-06-27T10:29:27.241Z,343.13
2018-06-27T10:30:27.464Z,337.50
2018-06-27T10:31:27.380Z,348.75
2018-06-27T10:32:27.468Z,348.75
2018-06-27T10:33:27.532Z,348.75
2018-06-27T10:34:27.616Z,365.63
2018-06-27T10:35:27.689Z,371.25
2018-06-27T10:36:27.765Z,388.13
2018-06-27T10:37:27.832Z,393.75
2018-06-27T10:38:27.916Z,410.63
2018-06-27T10:39:28.001Z,427.50
2018-06-27T10:40:28.065Z,438.75
2018-06-27T10:41:28.141Z,444.38
2018-06-27T10:42:28.209Z,427.50
2018-06-27T10:43:28.285Z,292.50
2018-06-27T10:44:28.382Z,326.25
2018-06-27T10:45:28.448Z,416.25
2018-06-27T10:46:28.528Z,286.88
2018-06-27T10:47:28.597Z,286.88
2018-06-27T10:48:28.671Z,292.50
2018-06-27T10:49:28.740Z,410.63
2018-06-27T10:50:28.825Z,388.13
2018-06-27T10:51:28.897Z,270.00
2018-06-27T10:52:28.965Z,270.00
2018-06-27T10:53:29.056Z,281.25
2018-06-27T10:54:29.121Z,292.50
2018-06-27T10:55:29.198Z,292.50
2018-06-27T10:56:29.374Z,270.00
2018-06-27T10:57:29.341Z,258.75
2018-06-27T10:58:29.418Z,371.25
2018-06-27T10:59:29.494Z,258.75
2018-06-27T11:00:29.570Z,258.75
2018-06-27T11:01:29.654Z,258.75
2018-06-27T11:02:29.726Z,258.75
2018-06-27T11:03:29.790Z,247.50
2018-06-27T11:04:29.866Z,303.75
2018-06-27T11:05:29.942Z,236.25
2018-06-27T11:06:30.031Z,225.00
2018-06-27T11:07:30.102Z,230.63
2018-06-27T11:08:30.166Z,247.50
2018-06-27T11:09:30.298Z,360.00
2018-06-27T11:10:30.314Z,360.00
2018-06-27T11:11:30.403Z,354.38
2018-06-27T11:12:30.467Z,348.75
2018-06-27T11:13:30.531Z,360.00
2018-06-27T11:14:30.615Z,360.00
2018-06-27T11:15:30.683Z,230.63
2018-06-27T11:16:30.763Z,253.13
2018-06-27T11:17:30.839Z,208.13
2018-06-27T11:18:30.911Z,213.75
2018-06-27T11:19:30.982Z,382.50
2018-06-27T11:20:31.055Z,382.50
2018-06-27T11:21:31.443Z,230.63
2018-06-27T11:22:31.199Z,230.63
2018-06-27T11:23:31.275Z,270.00
2018-06-27T11:24:31.351Z,236.25
2018-06-27T11:25:31.423Z,326.25
2018-06-27T11:26:31.503Z,253.13
2018-06-27T11:27:31.579Z,331.88
2018-06-27T11:28:31.649Z,331.88
2018-06-27T11:29:31.717Z,331.88
2018-06-27T11:30:31.793Z,264.38
2018-06-27T11:31:31.872Z,163.13
2018-06-27T11:32:31.946Z,163.13
2018-06-27T11:33:32.008Z,168.75
2018-06-27T11:34:32.084Z,337.50
2018-06-27T11:35:32.156Z,343.13
2018-06-27T11:36:32.244Z,348.75
2018-06-27T11:37:32.312Z,354.38
2018-06-27T11:38:32.408Z,360.00
2018-06-27T11:39:32.452Z,365.63
2018-06-27T11:40:32.525Z,348.75
2018-06-27T11:41:32.611Z,365.63
2018-06-27T11:42:32.676Z,354.38
2018-06-27T11:43:32.748Z,337.50
2018-06-27T11:44:32.944Z,191.25
2018-06-27T11:45:32.890Z,343.13
2018-06-27T11:46:32.982Z,343.13
2018-06-27T11:47:33.072Z,202.50
2018-06-27T11:48:33.120Z,219.38
2018-06-27T11:49:33.185Z,371.25
2018-06-27T11:50:33.272Z,247.50
2018-06-27T11:51:33.640Z,376.88
2018-06-27T11:52:33.409Z,376.88
2018-06-27T11:53:33.484Z,230.63
2018-06-27T11:54:33.584Z,326.25
2018-06-27T11:55:33.641Z,382.50
2018-06-27T11:56:33.729Z,343.13
2018-06-27T11:57:33.781Z,219.38
2018-06-27T11:58:33.841Z,219.38
2018-06-27T11:59:33.913Z,219.38
2018-06-27T12:00:34.058Z,225.00
2018-06-27T12:01:34.072Z,225.00
2018-06-27T12:02:34.201Z,219.38
2018-06-27T12:03:34.217Z,219.38
2018-06-27T12:04:34.285Z,213.75
2018-06-27T12:05:34.373Z,208.13
2018-06-27T12:06:34.453Z,196.88
2018-06-27T12:07:34.525Z,270.00
2018-06-27T12:08:34.666Z,168.75
2018-06-27T12:09:35.257Z,151.88
2018-06-27T12:10:34.742Z,146.25
2018-06-27T12:11:34.797Z,185.63
2018-06-27T12:12:34.866Z,298.13
2018-06-27T12:13:34.937Z,286.88
2018-06-27T12:14:35.006Z,247.50
2018-06-27T12:15:35.119Z,281.25
2018-06-27T12:16:35.154Z,253.13
2018-06-27T12:17:35.333Z,241.88
2018-06-27T12:18:35.297Z,236.25
2018-06-27T12:19:35.438Z,253.13
2018-06-27T12:20:35.450Z,303.75
2018-06-27T12:21:35.537Z,309.38
2018-06-27T12:22:35.609Z,292.50
2018-06-27T12:23:35.693Z,303.75
2018-06-27T12:24:35.806Z,309.38
2018-06-27T12:25:35.798Z,303.75
2018-06-27T12:26:35.918Z,303.75
2018-06-27T12:27:35.958Z,303.75
2018-06-27T12:28:36.034Z,298.13
2018-06-27T12:29:36.081Z,303.75
2018-06-27T12:30:36.166Z,140.63
2018-06-27T12:31:36.234Z,298.13
2018-06-27T12:32:36.318Z,303.75
2018-06-27T12:33:36.382Z,309.38
2018-06-27T12:34:36.442Z,309.38
2018-06-27T12:35:36.660Z,309.38
2018-06-27T12:36:36.586Z,315.00
2018-06-27T12:37:36.694Z,315.00
2018-06-27T12:38:36.849Z,286.88
2018-06-27T12:39:36.806Z,315.00